Etusivu
METAR-TAF:

METAR-TAF

Lentoasemat :

Brooks County Airport

Falfurrias, Texas, Yhdysvallat

Leveyspiiri: 27-12-24N, Pituuspiiri: 098-07-16W, korkeus merenpinnasta: 34 m

Tämänhetkinen sää

Tämä raportti tehtiin 22 minuuttia sitten, kello 01.35 UTC
Tuuli 5 kn idästä/kaakosta
Lämpötila 21°C
Kosteus 78%
Ilmanpaine 1014 hPa
Näkyvyys: 16.1 km
selkeää

METAR: KBKS 200135Z AUTO 11005KT 10SM CLR 21/17 A2994 RMK AO1 T02100174

Aika: 19:57 (01:57 UTC)


TAF: puuttuu

Säähavainnot ja -ennusteet yli 4000 lentoasemalta (METAR- ja TAF-raportit).

Käytössä olevat sääasemat on merkitty karttaan keltaisilla ja punaisilla pisteillä.

Aseta hiiri pisteen päälle nähdäksesi sääaseman nimen.

Klikkaa sitten nähdäksesi säähavainnot ja -ennusteet.

Kartan vaihtaminen: klikkaa mustalla rastilla varustettuja vihreitä pisteitä, niin voit zoomata sisään; viivalla varustettua vihreää pistettä, niin voit zoomata ulos tai vihreitä nuolia, niin pääset viereisille kartoille.


METAR-TAF: